createdAt,value
2023-03-06T00:00:26.319Z,36.90
2023-03-06T00:02:52.961Z,36.60
2023-03-06T00:05:19.600Z,37.30
2023-03-06T00:07:46.278Z,36.90
2023-03-06T00:10:17.262Z,37.00
2023-03-06T00:12:43.895Z,37.90
2023-03-06T00:15:11.128Z,37.00
2023-03-06T00:17:37.853Z,37.90
2023-03-06T00:20:06.079Z,37.90
2023-03-06T00:22:32.800Z,37.90
2023-03-06T00:24:59.527Z,38.50
2023-03-06T00:27:26.374Z,38.50
2023-03-06T00:29:56.872Z,38.80
2023-03-06T00:32:24.050Z,40.40
2023-03-06T00:34:51.264Z,39.90
2023-03-06T00:37:17.890Z,39.70
2023-03-06T00:39:44.500Z,40.30
2023-03-06T00:42:11.119Z,40.10
2023-03-06T00:44:37.859Z,40.70
2023-03-06T00:47:04.515Z,40.80
2023-03-06T00:49:31.134Z,41.60
2023-03-06T00:51:57.787Z,40.50
2023-03-06T00:54:24.439Z,40.80
2023-03-06T00:56:51.344Z,41.20
2023-03-06T00:59:18.033Z,41.80
2023-03-06T01:01:44.808Z,42.30
2023-03-06T01:04:12.066Z,42.10
2023-03-06T01:06:38.917Z,43.00
2023-03-06T01:09:05.678Z,44.30
2023-03-06T01:11:32.254Z,43.60
2023-03-06T01:13:58.927Z,43.80
2023-03-06T01:16:25.627Z,43.20
2023-03-06T01:18:52.477Z,44.60
2023-03-06T01:21:19.129Z,44.60
2023-03-06T01:23:45.908Z,43.70
2023-03-06T01:26:12.572Z,42.80
2023-03-06T01:28:40.591Z,43.40
2023-03-06T01:31:07.919Z,43.00
2023-03-06T01:33:34.927Z,44.60
2023-03-06T01:36:04.611Z,44.60
2023-03-06T01:38:31.270Z,44.60
2023-03-06T01:40:57.900Z,44.60
2023-03-06T01:43:24.463Z,44.60
2023-03-06T01:45:51.156Z,44.60
2023-03-06T01:48:20.016Z,44.70
2023-03-06T01:50:46.676Z,44.60
2023-03-06T01:53:13.807Z,44.60
2023-03-06T01:55:40.490Z,44.60
2023-03-06T01:58:08.909Z,44.60
2023-03-06T02:00:35.531Z,45.20
2023-03-06T02:03:09.827Z,44.70
2023-03-06T02:05:36.690Z,43.30
2023-03-06T02:08:03.979Z,44.10
2023-03-06T02:10:30.635Z,42.90
2023-03-06T02:12:57.362Z,42.60
2023-03-06T02:15:25.858Z,43.40
2023-03-06T02:17:52.723Z,45.10
2023-03-06T02:20:19.472Z,43.80
2023-03-06T02:22:49.401Z,44.60
2023-03-06T02:25:21.952Z,43.60
2023-03-06T02:27:48.775Z,44.60
2023-03-06T02:30:16.618Z,44.50
2023-03-06T02:32:43.202Z,44.40
2023-03-06T02:35:17.741Z,44.50
2023-03-06T02:37:44.372Z,44.50
2023-03-06T02:40:13.381Z,44.80
2023-03-06T02:42:45.894Z,44.40
2023-03-06T02:45:14.146Z,45.10
2023-03-06T02:47:40.741Z,44.50
2023-03-06T02:50:07.517Z,45.00
2023-03-06T02:52:34.445Z,45.80
2023-03-06T02:55:01.000Z,46.60
2023-03-06T02:57:27.617Z,46.70
2023-03-06T02:59:54.219Z,46.60
2023-03-06T03:02:20.953Z,47.00
2023-03-06T03:04:47.610Z,45.50
2023-03-06T03:07:14.235Z,44.80
2023-03-06T03:09:40.781Z,44.70
2023-03-06T03:12:07.817Z,46.10
2023-03-06T03:14:34.408Z,47.20
2023-03-06T03:17:01.062Z,48.50
2023-03-06T03:19:27.884Z,48.30
2023-03-06T03:21:54.492Z,48.40
2023-03-06T03:24:21.093Z,48.60
2023-03-06T03:26:47.715Z,49.30
2023-03-06T03:29:14.314Z,49.50
2023-03-06T03:31:40.989Z,50.90
2023-03-06T03:34:08.662Z,51.30
2023-03-06T03:36:35.331Z,51.40
2023-03-06T03:39:02.005Z,51.80
2023-03-06T03:41:28.723Z,51.20
2023-03-06T03:43:55.331Z,50.40
2023-03-06T03:46:22.028Z,51.10
2023-03-06T03:48:48.576Z,51.80
2023-03-06T03:51:16.583Z,51.30
2023-03-06T03:53:44.180Z,51.40
2023-03-06T03:56:11.157Z,51.10
2023-03-06T03:58:37.870Z,51.90
2023-03-06T04:01:04.981Z,52.10
2023-03-06T04:03:31.563Z,52.60
2023-03-06T04:05:58.249Z,53.80
2023-03-06T04:08:25.104Z,54.10
2023-03-06T04:10:52.549Z,53.90
2023-03-06T04:13:21.031Z,53.30
2023-03-06T04:15:48.121Z,54.00
2023-03-06T04:18:16.539Z,54.70
2023-03-06T04:20:44.181Z,54.70
2023-03-06T04:23:10.992Z,54.70
2023-03-06T04:25:37.914Z,54.70
2023-03-06T04:28:05.100Z,54.70
2023-03-06T04:30:32.310Z,54.70
2023-03-06T04:32:59.147Z,54.70
2023-03-06T04:35:25.745Z,54.70
2023-03-06T04:37:52.433Z,54.70
2023-03-06T04:40:21.527Z,55.20
2023-03-06T04:42:48.464Z,54.70
2023-03-06T04:45:15.435Z,54.70
2023-03-06T04:47:42.521Z,54.70
2023-03-06T04:50:09.648Z,54.70
2023-03-06T04:52:36.310Z,54.70
2023-03-06T04:55:08.589Z,54.70
2023-03-06T04:57:39.407Z,54.70
2023-03-06T05:00:08.922Z,54.60
2023-03-06T05:02:36.151Z,54.80
2023-03-06T05:05:02.978Z,55.90
2023-03-06T05:07:29.662Z,56.40
2023-03-06T05:09:56.298Z,56.50
2023-03-06T05:12:22.932Z,55.80
2023-03-06T05:14:49.526Z,56.20
2023-03-06T05:17:16.117Z,56.10
2023-03-06T05:19:42.704Z,55.90
2023-03-06T05:22:09.328Z,55.70
2023-03-06T05:24:36.627Z,57.00
2023-03-06T05:27:03.377Z,56.70
2023-03-06T05:29:29.959Z,56.80
2023-03-06T05:31:56.667Z,57.90
2023-03-06T05:34:23.281Z,57.50
2023-03-06T05:36:49.922Z,57.30
2023-03-06T05:39:16.509Z,57.60
2023-03-06T05:41:43.105Z,56.90
2023-03-06T05:44:09.677Z,57.10
2023-03-06T05:46:37.697Z,56.60
2023-03-06T05:49:04.326Z,55.20
2023-03-06T05:51:30.901Z,56.00
2023-03-06T05:53:57.524Z,56.20
2023-03-06T05:56:24.284Z,56.20
2023-03-06T05:58:51.665Z,55.80
2023-03-06T06:01:20.476Z,56.30
2023-03-06T06:03:47.243Z,56.60
2023-03-06T06:06:15.332Z,55.90
2023-03-06T06:08:42.040Z,55.90
2023-03-06T06:11:09.867Z,56.60
2023-03-06T06:13:37.134Z,55.90
2023-03-06T06:16:11.592Z,55.00
2023-03-06T06:18:41.042Z,54.70
2023-03-06T06:21:09.396Z,54.90
2023-03-06T06:23:36.004Z,54.70
2023-03-06T06:26:04.252Z,55.30
2023-03-06T06:28:31.161Z,55.80
2023-03-06T06:30:57.931Z,56.80
2023-03-06T06:33:24.613Z,56.50
2023-03-06T06:35:51.671Z,56.60
2023-03-06T06:38:18.715Z,54.80
2023-03-06T06:40:54.017Z,54.80
2023-03-06T06:43:31.460Z,55.10
2023-03-06T06:46:19.903Z,54.90
2023-03-06T06:48:48.524Z,55.00
2023-03-06T06:51:15.690Z,55.00
2023-03-06T06:53:42.368Z,54.10
2023-03-06T06:56:08.986Z,53.90
2023-03-06T06:58:35.653Z,51.00
2023-03-06T07:01:06.647Z,49.20
2023-03-06T07:03:33.453Z,48.40
2023-03-06T07:06:00.167Z,49.40
2023-03-06T07:08:26.993Z,48.30
2023-03-06T07:10:53.599Z,46.70
2023-03-06T07:13:20.389Z,46.60
2023-03-06T07:15:47.077Z,45.30
2023-03-06T07:18:13.714Z,45.10
2023-03-06T07:20:40.923Z,45.20
2023-03-06T07:23:08.441Z,43.20
2023-03-06T07:25:35.039Z,43.40
2023-03-06T07:28:01.929Z,43.30
2023-03-06T07:30:28.871Z,41.90
2023-03-06T07:32:56.795Z,40.70
2023-03-06T07:35:24.116Z,40.40
2023-03-06T07:37:51.439Z,39.30
2023-03-06T07:40:19.778Z,37.60
2023-03-06T07:42:46.580Z,36.20
2023-03-06T07:45:13.227Z,35.00
2023-03-06T07:47:40.304Z,33.60
2023-03-06T07:50:07.420Z,33.50
2023-03-06T07:52:34.402Z,31.10
2023-03-06T07:55:01.036Z,30.70
2023-03-06T07:57:27.772Z,29.70
2023-03-06T07:59:54.406Z,28.20
2023-03-06T08:02:21.020Z,27.90
2023-03-06T08:04:54.368Z,27.60
2023-03-06T08:07:21.652Z,26.80
2023-03-06T08:09:48.534Z,25.60
2023-03-06T08:12:16.647Z,25.60
2023-03-06T08:14:43.306Z,25.70
2023-03-06T08:17:09.866Z,25.70
2023-03-06T08:19:36.483Z,24.40
2023-03-06T08:22:04.256Z,22.80
2023-03-06T08:24:31.016Z,22.10
2023-03-06T08:26:57.607Z,19.90
2023-03-06T08:29:24.321Z,20.20
2023-03-06T08:31:51.072Z,20.50
2023-03-06T08:34:18.838Z,18.50
2023-03-06T08:36:45.509Z,18.20
2023-03-06T08:39:13.156Z,17.20
2023-03-06T08:41:40.247Z,15.40
2023-03-06T08:44:06.931Z,14.60
2023-03-06T08:46:33.961Z,15.60
2023-03-06T08:49:00.948Z,14.10
2023-03-06T08:51:29.001Z,12.70
2023-03-06T08:53:56.557Z,12.50
2023-03-06T08:56:30.994Z,12.10
2023-03-06T08:58:58.987Z,11.90
2023-03-06T09:01:27.037Z,10.90
2023-03-06T09:03:54.342Z,11.30
2023-03-06T09:06:21.035Z,10.90
2023-03-06T09:08:47.658Z,10.80
2023-03-06T09:11:15.366Z,8.30
2023-03-06T09:13:42.532Z,8.20
2023-03-06T09:16:09.706Z,8.30
2023-03-06T09:18:36.728Z,8.40
2023-03-06T09:21:04.137Z,6.50
2023-03-06T09:23:31.049Z,4.80
2023-03-06T09:25:58.586Z,6.30
2023-03-06T09:28:26.458Z,4.80
2023-03-06T09:30:53.309Z,3.90
2023-03-06T09:33:20.332Z,3.20
2023-03-06T09:35:51.899Z,3.90
2023-03-06T09:38:19.308Z,3.60
2023-03-06T09:41:02.203Z,3.10
2023-03-06T09:43:38.096Z,2.70
2023-03-06T09:46:16.659Z,1.90
2023-03-06T09:48:53.705Z,3.50
2023-03-06T09:51:24.584Z,1.70
2023-03-06T09:54:04.023Z,1.00
2023-03-06T09:56:33.525Z,1.40
2023-03-06T09:59:07.104Z,1.00
2023-03-06T10:01:37.301Z,1.00
2023-03-06T10:04:16.065Z,1.00
2023-03-06T10:06:47.603Z,1.00
2023-03-06T10:09:14.362Z,1.00
2023-03-06T10:11:49.380Z,1.00
2023-03-06T10:14:28.036Z,1.00
2023-03-06T10:16:55.271Z,1.00
2023-03-06T10:19:21.956Z,1.00
2023-03-06T10:21:53.161Z,1.00
2023-03-06T10:24:22.736Z,1.00
2023-03-06T10:26:55.667Z,3.00
2023-03-06T10:29:29.802Z,1.00
2023-03-06T10:32:12.347Z,1.40
2023-03-06T10:34:40.243Z,1.00
2023-03-06T10:37:20.361Z,1.00
2023-03-06T10:39:47.169Z,1.00
2023-03-06T10:42:13.866Z,1.00
2023-03-06T10:44:40.470Z,1.00
2023-03-06T10:47:26.456Z,1.00
2023-03-06T10:49:57.596Z,1.00
2023-03-06T10:52:27.843Z,1.00
2023-03-06T10:55:13.084Z,1.00
2023-03-06T10:57:39.728Z,1.00
2023-03-06T11:00:22.778Z,1.00
2023-03-06T11:03:03.257Z,1.00
2023-03-06T11:05:30.148Z,1.00
2023-03-06T11:07:57.774Z,1.00
2023-03-06T11:10:31.729Z,1.00
2023-03-06T11:12:59.789Z,1.00
2023-03-06T11:15:27.413Z,1.00
2023-03-06T11:17:55.820Z,1.00
2023-03-06T11:20:24.495Z,1.00
2023-03-06T11:23:06.676Z,1.00
2023-03-06T11:25:37.293Z,1.00
2023-03-06T11:28:12.187Z,1.00
2023-03-06T11:30:44.015Z,1.00
2023-03-06T11:33:17.638Z,1.00
2023-03-06T11:36:04.940Z,1.00
2023-03-06T11:38:51.646Z,1.00
2023-03-06T11:41:31.084Z,1.00
2023-03-06T11:44:03.700Z,1.00
2023-03-06T11:46:37.774Z,1.00
2023-03-06T11:49:13.618Z,1.00
2023-03-06T11:51:42.571Z,1.00
2023-03-06T11:54:11.368Z,1.00
2023-03-06T11:56:37.927Z,1.00
2023-03-06T11:59:13.744Z,1.00
2023-03-06T12:01:51.337Z,1.00
2023-03-06T12:04:17.954Z,1.00
2023-03-06T12:06:55.259Z,1.00
2023-03-06T12:09:27.563Z,1.00
2023-03-06T12:11:54.096Z,1.00
2023-03-06T12:14:20.685Z,1.00
2023-03-06T12:17:03.948Z,1.00
2023-03-06T12:19:50.286Z,1.00
2023-03-06T12:22:21.204Z,1.00
2023-03-06T12:24:56.948Z,1.00
2023-03-06T12:27:42.745Z,1.00
2023-03-06T12:30:20.244Z,1.00
2023-03-06T12:32:52.064Z,1.00
2023-03-06T12:35:22.298Z,1.00
2023-03-06T12:37:58.260Z,1.00
2023-03-06T12:40:27.655Z,1.00
2023-03-06T12:43:00.238Z,1.00
2023-03-06T12:45:33.645Z,1.00
2023-03-06T12:48:00.941Z,1.00
2023-03-06T12:50:29.100Z,1.00
2023-03-06T12:52:57.145Z,1.00
2023-03-06T12:55:25.901Z,1.00
2023-03-06T12:57:53.030Z,1.00
2023-03-06T13:00:35.133Z,1.00
2023-03-06T13:03:01.708Z,1.00
2023-03-06T13:05:31.436Z,1.00
2023-03-06T13:08:01.068Z,1.00
2023-03-06T13:10:29.723Z,1.00
2023-03-06T13:13:19.568Z,1.00
2023-03-06T13:16:04.310Z,1.00
2023-03-06T13:18:33.994Z,1.00
2023-03-06T13:21:01.011Z,1.00
2023-03-06T13:23:30.653Z,1.00
2023-03-06T13:25:58.533Z,1.00
2023-03-06T13:28:49.376Z,1.00
2023-03-06T13:31:27.589Z,1.00
2023-03-06T13:33:56.295Z,1.00
2023-03-06T13:36:27.254Z,1.00
2023-03-06T13:38:54.260Z,1.00
2023-03-06T13:41:21.083Z,1.00
2023-03-06T13:43:48.447Z,1.00
2023-03-06T13:46:26.806Z,1.00
2023-03-06T13:49:08.495Z,1.00
2023-03-06T13:51:36.794Z,1.00
2023-03-06T13:54:23.742Z,1.00
2023-03-06T13:56:58.585Z,1.00
2023-03-06T13:59:25.128Z,1.00
2023-03-06T14:02:10.436Z,1.00
2023-03-06T14:04:41.948Z,1.00
2023-03-06T14:07:32.141Z,1.00
2023-03-06T14:10:04.857Z,1.00
2023-03-06T14:12:33.669Z,1.00
2023-03-06T14:15:04.256Z,1.00
2023-03-06T14:17:34.877Z,1.00
2023-03-06T14:20:12.477Z,1.00
2023-03-06T14:22:39.070Z,1.00
2023-03-06T14:25:13.772Z,1.00
2023-03-06T14:27:42.405Z,1.00
2023-03-06T14:30:13.324Z,1.00
2023-03-06T14:32:40.496Z,1.00
2023-03-06T14:35:18.914Z,1.00
2023-03-06T14:37:47.442Z,1.00
2023-03-06T14:40:18.139Z,1.00
2023-03-06T14:42:44.723Z,1.00
2023-03-06T14:45:16.581Z,1.00
2023-03-06T14:47:43.391Z,1.00
2023-03-06T14:50:19.451Z,1.00
2023-03-06T14:52:46.347Z,1.00
2023-03-06T14:55:18.480Z,1.00
2023-03-06T14:57:45.862Z,1.00
2023-03-06T15:00:19.120Z,1.00
2023-03-06T15:02:46.540Z,1.00
2023-03-06T15:05:27.178Z,1.00
2023-03-06T15:07:54.255Z,1.00
2023-03-06T15:10:22.549Z,1.00
2023-03-06T15:12:49.204Z,1.00
2023-03-06T15:15:15.740Z,1.00
2023-03-06T15:17:43.499Z,1.00
2023-03-06T15:20:29.166Z,1.00
2023-03-06T15:22:55.718Z,1.00
2023-03-06T15:25:31.822Z,1.00
2023-03-06T15:27:58.435Z,1.00
2023-03-06T15:30:30.267Z,1.00
2023-03-06T15:33:09.310Z,1.00
2023-03-06T15:35:37.867Z,1.00
2023-03-06T15:38:22.216Z,1.00
2023-03-06T15:40:56.439Z,1.00
2023-03-06T15:43:23.080Z,1.00
2023-03-06T15:45:49.719Z,1.00
2023-03-06T15:48:17.558Z,1.00
2023-03-06T15:50:44.276Z,1.00
2023-03-06T15:53:10.883Z,1.00
2023-03-06T15:55:37.789Z,1.00
2023-03-06T15:58:04.688Z,1.00
2023-03-06T16:00:34.135Z,1.00
2023-03-06T16:03:01.598Z,1.00
2023-03-06T16:05:28.973Z,1.00
2023-03-06T16:07:55.557Z,1.00
2023-03-06T16:10:23.435Z,1.00
2023-03-06T16:12:51.456Z,1.00
2023-03-06T16:15:20.085Z,3.40
2023-03-06T16:17:47.072Z,5.10
2023-03-06T16:20:15.012Z,6.50
2023-03-06T16:22:41.597Z,8.00
2023-03-06T16:25:08.747Z,7.90
2023-03-06T16:27:35.299Z,7.90
2023-03-06T16:30:02.061Z,7.80
2023-03-06T16:32:28.925Z,8.80
2023-03-06T16:34:55.519Z,9.70
2023-03-06T16:37:22.092Z,10.10
2023-03-06T16:39:48.648Z,11.10
2023-03-06T16:42:17.542Z,11.00
2023-03-06T16:44:44.110Z,10.90
2023-03-06T16:47:12.044Z,11.40
2023-03-06T16:49:38.622Z,12.90
2023-03-06T16:52:05.280Z,13.20
2023-03-06T16:54:32.013Z,13.40
2023-03-06T16:56:58.702Z,13.80
2023-03-06T16:59:25.304Z,14.40
2023-03-06T17:01:51.882Z,14.50
2023-03-06T17:04:18.479Z,15.50
2023-03-06T17:06:45.141Z,15.90
2023-03-06T17:09:11.842Z,16.80
2023-03-06T17:11:43.312Z,16.70
2023-03-06T17:14:10.283Z,16.70
2023-03-06T17:16:40.125Z,16.80
2023-03-06T17:19:06.943Z,17.90
2023-03-06T17:21:35.365Z,18.10
2023-03-06T17:24:03.735Z,18.10
2023-03-06T17:26:30.869Z,18.50
2023-03-06T17:28:57.455Z,19.30
2023-03-06T17:31:26.516Z,19.00
2023-03-06T17:33:57.100Z,19.60
2023-03-06T17:36:23.722Z,20.30
2023-03-06T17:38:50.587Z,20.30
2023-03-06T17:41:17.281Z,20.40
2023-03-06T17:43:44.134Z,20.50
2023-03-06T17:46:11.702Z,20.90
2023-03-06T17:48:38.775Z,21.60
2023-03-06T17:51:05.806Z,21.10
2023-03-06T17:53:32.367Z,21.40
2023-03-06T17:55:59.025Z,21.80
2023-03-06T17:58:26.208Z,22.40
2023-03-06T18:00:53.192Z,22.50
2023-03-06T18:03:19.842Z,23.00
2023-03-06T18:05:46.413Z,23.00
2023-03-06T18:08:13.096Z,23.10
2023-03-06T18:10:40.658Z,24.10
2023-03-06T18:13:07.665Z,24.40
2023-03-06T18:15:34.231Z,24.80
2023-03-06T18:18:00.852Z,24.60
2023-03-06T18:20:27.556Z,24.80
2023-03-06T18:22:54.273Z,25.10
2023-03-06T18:25:20.974Z,24.60
2023-03-06T18:27:47.556Z,26.00
2023-03-06T18:30:14.449Z,25.40
2023-03-06T18:32:41.115Z,25.40
2023-03-06T18:35:09.699Z,25.40
2023-03-06T18:37:36.290Z,25.50
2023-03-06T18:40:02.941Z,25.90
2023-03-06T18:42:29.474Z,26.80
2023-03-06T18:44:56.074Z,26.70
2023-03-06T18:47:22.670Z,26.90
2023-03-06T18:49:49.317Z,26.80
2023-03-06T18:52:15.848Z,26.70
2023-03-06T18:54:42.785Z,27.20
2023-03-06T18:57:11.221Z,27.70
2023-03-06T18:59:38.085Z,28.50
2023-03-06T19:02:04.632Z,28.60
2023-03-06T19:04:31.263Z,28.80
2023-03-06T19:06:57.791Z,28.80
2023-03-06T19:09:24.334Z,29.60
2023-03-06T19:11:52.548Z,30.00
2023-03-06T19:14:21.403Z,29.80
2023-03-06T19:16:48.118Z,32.00
2023-03-06T19:19:14.729Z,32.10
2023-03-06T19:21:41.352Z,33.10
2023-03-06T19:24:13.322Z,33.20
2023-03-06T19:26:40.727Z,35.10
2023-03-06T19:29:07.472Z,35.10
2023-03-06T19:31:34.222Z,35.00
2023-03-06T19:34:00.895Z,35.00
2023-03-06T19:36:33.282Z,35.00
2023-03-06T19:39:01.850Z,35.10
2023-03-06T19:41:28.663Z,36.00
2023-03-06T19:43:59.161Z,37.20
2023-03-06T19:46:26.169Z,37.20
2023-03-06T19:48:57.074Z,37.20
2023-03-06T19:51:24.046Z,37.70
2023-03-06T19:53:50.650Z,39.00
2023-03-06T19:56:21.373Z,39.50
2023-03-06T19:58:48.062Z,40.30
2023-03-06T20:01:17.932Z,40.30
2023-03-06T20:03:44.561Z,40.70
2023-03-06T20:06:15.491Z,41.50
2023-03-06T20:08:42.838Z,42.00
2023-03-06T20:11:19.319Z,42.90
2023-03-06T20:13:47.309Z,44.30
2023-03-06T20:16:14.486Z,44.00
2023-03-06T20:18:41.075Z,44.80
2023-03-06T20:21:08.028Z,45.00
2023-03-06T20:23:34.690Z,45.50
2023-03-06T20:26:02.065Z,45.60
2023-03-06T20:28:28.626Z,45.50
2023-03-06T20:30:55.282Z,45.50
2023-03-06T20:33:22.981Z,45.50
2023-03-06T20:35:49.634Z,45.50
2023-03-06T20:38:16.227Z,45.50
2023-03-06T20:40:43.072Z,45.50
2023-03-06T20:43:09.877Z,45.60
2023-03-06T20:45:36.486Z,45.50
2023-03-06T20:48:03.138Z,45.50
2023-03-06T20:50:31.034Z,45.50
2023-03-06T20:52:58.815Z,45.50
2023-03-06T20:55:25.431Z,45.60
2023-03-06T20:57:52.527Z,45.50
2023-03-06T21:00:20.913Z,45.50
2023-03-06T21:02:47.583Z,45.90
2023-03-06T21:05:14.252Z,45.50
2023-03-06T21:07:40.830Z,45.60
2023-03-06T21:10:07.886Z,45.60
2023-03-06T21:12:34.521Z,45.50
2023-03-06T21:15:01.105Z,45.50
2023-03-06T21:17:28.112Z,45.50
2023-03-06T21:19:54.679Z,45.40
2023-03-06T21:22:21.216Z,45.50
2023-03-06T21:24:47.724Z,45.40
2023-03-06T21:27:14.262Z,45.40
2023-03-06T21:29:40.798Z,45.50
2023-03-06T21:32:07.445Z,45.40
2023-03-06T21:34:34.006Z,44.80
2023-03-06T21:37:00.658Z,44.20
2023-03-06T21:39:27.422Z,44.10
2023-03-06T21:41:54.013Z,43.90
2023-03-06T21:44:20.637Z,43.50
2023-03-06T21:46:47.208Z,44.00
2023-03-06T21:49:13.907Z,44.20
2023-03-06T21:51:40.516Z,43.60
2023-03-06T21:54:09.562Z,43.20
2023-03-06T21:56:36.140Z,42.90
2023-03-06T21:59:02.701Z,43.40
2023-03-06T22:01:29.698Z,43.70
2023-03-06T22:03:57.340Z,42.90
2023-03-06T22:06:25.441Z,43.80
2023-03-06T22:08:52.308Z,43.50
2023-03-06T22:11:20.234Z,44.10
2023-03-06T22:13:48.047Z,42.30
2023-03-06T22:16:15.132Z,41.60
2023-03-06T22:18:45.421Z,40.80
2023-03-06T22:21:12.725Z,40.90
2023-03-06T22:23:40.474Z,40.70
2023-03-06T22:26:12.290Z,40.70
2023-03-06T22:28:39.250Z,40.40
2023-03-06T22:31:16.628Z,40.20
2023-03-06T22:33:43.379Z,39.10
2023-03-06T22:36:14.708Z,38.30
2023-03-06T22:38:42.978Z,38.00
2023-03-06T22:41:10.284Z,37.30
2023-03-06T22:43:37.062Z,36.60
2023-03-06T22:46:08.233Z,37.00
2023-03-06T22:48:34.968Z,37.20
2023-03-06T22:51:02.956Z,36.20
2023-03-06T22:53:29.545Z,36.00
2023-03-06T22:55:59.876Z,35.00
2023-03-06T22:58:27.250Z,34.40
2023-03-06T23:00:53.945Z,34.40
2023-03-06T23:03:20.552Z,34.40
2023-03-06T23:05:47.133Z,34.40
2023-03-06T23:08:13.808Z,34.40
2023-03-06T23:10:40.588Z,34.40
2023-03-06T23:13:07.173Z,34.40
2023-03-06T23:15:34.904Z,34.40
2023-03-06T23:18:01.506Z,34.40
2023-03-06T23:20:28.351Z,34.40
2023-03-06T23:22:55.051Z,34.40
2023-03-06T23:25:21.926Z,35.80
2023-03-06T23:27:48.500Z,36.40
2023-03-06T23:30:15.781Z,37.50
2023-03-06T23:32:44.805Z,38.20
2023-03-06T23:35:12.357Z,37.50
2023-03-06T23:37:38.954Z,38.10
2023-03-06T23:40:07.860Z,37.00
2023-03-06T23:42:34.436Z,37.70
2023-03-06T23:45:01.039Z,37.70
2023-03-06T23:47:30.925Z,37.40
2023-03-06T23:49:57.488Z,38.00
2023-03-06T23:52:24.086Z,38.30
2023-03-06T23:54:50.661Z,38.00
2023-03-06T23:57:17.241Z,38.50
2023-03-06T23:59:44.065Z,39.60
